CDT,Max TemperatureF,Mean TemperatureF,Min TemperatureF,Max Dew PointF,MeanDew PointF,Min DewpointF,Max Humidity, Mean Humidity, Min Humidity, Max Sea Level PressureIn, Mean Sea Level PressureIn, Min Sea Level PressureIn, Max VisibilityMiles, Mean VisibilityMiles, Min VisibilityMiles, Max Wind SpeedMPH, Mean Wind SpeedMPH, Max Gust SpeedMPH,PrecipitationIn, CloudCover, Events, WindDirDegrees
2012-9-1,87,73,58,59,53,50,84,57,29,30.07,30.03,29.99,10,10,9,16,7,25,0.00,0,,72
2012-9-2,92,73,54,64,59,50,86,62,38,30.01,29.94,29.88,10,10,10,13,6,20,0.00,0,,139
2012-9-3,84,71,57,70,64,57,100,78,55,29.97,29.91,29.87,10,7,0,14,5,17,T,1,Fog-Thunderstorm,211
2012-9-4,96,77,58,69,61,56,100,66,31,29.96,29.87,29.74,10,4,0,52,8,69,0.28,2,Fog-Thunderstorm,191
2012-9-5,83,68,53,62,57,47,93,64,34,29.93,29.85,29.75,10,9,2,37,9,45,0.18,4,Rain-Thunderstorm,295
2012-9-6,83,66,49,51,45,38,83,52,21,30.02,29.94,29.86,10,10,9,16,5,23,0.00,1,,176
2012-9-7,73,61,49,57,49,40,90,62,33,30.04,29.92,29.79,10,10,10,25,11,30,T,2,Rain-Thunderstorm,348
2012-9-8,82,63,43,45,41,38,89,55,20,30.07,29.99,29.83,10,10,10,32,14,40,0.00,0,,302
2012-9-9,76,61,46,50,44,41,93,61,29,30.21,30.14,30.04,10,10,4,14,6,18,0.00,0,,328
2012-9-10,82,62,41,49,44,40,89,57,24,30.14,30.05,29.93,10,10,6,26,14,37,0.00,0,,179
2012-9-11,94,76,58,50,48,44,72,46,19,29.92,29.89,29.83,10,10,10,30,16,40,0.00,0,,186
2012-9-12,72,62,51,55,50,41,96,71,46,30.29,30.13,29.91,10,9,2,20,9,24,0.39,6,Rain,5
2012-9-13,70,60,49,49,44,33,93,60,26,30.40,30.34,30.31,10,10,4,13,6,16,0.22,2,Rain,233
2012-9-14,79,63,47,46,43,38,86,55,23,30.35,30.30,30.25,10,10,5,13,6,18,0.00,0,,203
2012-9-15,80,66,51,45,42,38,77,49,21,30.28,30.18,30.07,10,10,10,24,13,30,0.00,0,,211
2012-9-16,80,65,50,58,51,43,78,59,39,30.06,29.98,29.89,10,10,10,22,11,28,0.00,0,,214
2012-9-17,64,55,46,57,44,33,84,60,36,30.02,29.96,29.89,10,10,6,23,12,30,0.05,5,Rain,332
2012-9-18,62,49,36,40,34,27,86,57,28,30.07,30.02,29.96,10,10,9,17,8,24,0.00,2,,315
2012-9-19,81,63,45,45,36,28,65,42,18,29.94,29.82,29.69,10,10,10,28,14,36,0.00,0,,239
2012-9-20,68,54,40,36,31,25,67,45,22,29.98,29.95,29.91,10,10,9,24,10,31,T,0,,284
2012-9-21,70,57,43,46,40,35,86,60,34,29.92,29.87,29.81,10,10,10,24,6,32,0.03,6,Rain,339
2012-9-22,59,47,35,36,30,23,65,51,36,30.28,30.15,29.88,10,10,10,29,14,36,0.00,4,,320
2012-9-23,60,44,28,31,25,21,78,50,22,30.36,30.30,30.25,10,10,10,17,6,26,0.00,0,,310
2012-9-24,78,55,32,38,31,23,70,45,19,30.22,29.99,29.83,10,10,10,28,13,35,0.00,0,,219
2012-9-25,81,62,43,41,37,32,71,45,19,29.94,29.86,29.80,10,10,8,14,8,18,0.00,0,,322
2012-9-26,73,53,33,37,30,25,82,50,17,30.19,30.08,29.97,10,10,9,10,5,15,0.00,0,,347
2012-9-27,71,52,33,41,34,30,89,58,26,30.29,30.22,30.17,10,9,2,14,4,18,0.00,0,,114
2012-9-28,75,55,34,39,34,30,85,53,20,30.25,30.20,30.14,10,9,2,9,2,12,0.00,0,,195
2012-9-29,83,64,44,39,35,31,76,46,15,30.16,30.09,30.01,10,10,7,16,7,20,0.00,0,,291
2012-9-30,82,62,42,40,36,32,76,48,20,30.02,29.96,29.91,10,9,3,12,4,15,0.00,0,,24